ZLXY/XIY METAR and TAF weather

Enter ICAO airport designator
Station Type Date Time Source
ZLXY METAR 2021/02/28 03:00 UTC NOAA

ZLXY 280300Z VRB01MPS 2500 -RA BR FEW010 SCT020 OVC040 04/04 Q1019 NOSIG


Station Type Date Time Source
ZLXY Decoded METAR 2021/02/28 03:00 UTC NOAA

Xian/Xianyang, China (ZLXY) 34-26N 108-45E
Feb 27, 2021 - 10:00 PM EST / 2021.02.28 0300 UTC
Wind: Variable at 2 MPH (2 KT):0
Visibility: 1 mile(s):0
Sky conditions: overcast
Weather: light rain; mist
Temperature: 39 F (4 C)
Dew Point: 39 F (4 C)
Relative Humidity: 100%
Pressure (altimeter): 30.09 in. Hg (1019 hPa)
ob: ZLXY 280300Z VRB01MPS 2500 -RA BR FEW010 SCT020 OVC040 04/04 Q1019 NOSIG
cycle: 3

Station Type Date Time Source
ZLXY TAF 2021/02/27 18:59 UTC NOAA

TAF
AMD ZLXY 271852Z 2718/2818 24003MPS 3000 BR FEW005 OVC040 TX07/2807Z TN03/2723Z
BECMG 2800/2801 -RA

Example: see airport list